Time;durP1;ratioP1;P1;durP2;ratioP2;P2;SDS_P1;SDS_P2;PMS_P1;PMS_P2;Temp;Humidity;BMP_temperature;BMP_pressure;BME280_temperature;BME280_humidity;BME280_pressure;Samples;Min_cycle;Max_cycle;Signal;HPM_P1;HPM_P2
2022/03/03 00:00:50;;;;;;;17.55;11.55;;;8.60;51.80;;;;;;5054492;28;20498;-79
2022/03/03 00:03:16;;;;;;;20.55;12.85;;;8.50;51.50;;;;;;5054478;28;20098;-77
2022/03/03 00:05:41;;;;;;;18.20;12.13;;;8.40;51.80;;;;;;5053458;28;20068;-78
2022/03/03 00:08:07;;;;;;;21.42;12.30;;;8.30;52.10;;;;;;5055344;28;20464;-78
2022/03/03 00:10:33;;;;;;;18.65;11.15;;;8.20;52.80;;;;;;5042097;28;20021;-79
2022/03/03 00:12:58;;;;;;;20.33;12.32;;;8.20;53.00;;;;;;5055666;28;20037;-78
2022/03/03 00:15:24;;;;;;;19.75;12.02;;;8.30;52.70;;;;;;5049643;28;20033;-79
2022/03/03 00:17:49;;;;;;;23.50;13.15;;;8.20;52.70;;;;;;5043976;28;20376;-79
2022/03/03 00:20:15;;;;;;;19.27;11.82;;;8.20;53.40;;;;;;5051171;28;20111;-79
2022/03/03 00:22:41;;;;;;;19.65;12.68;;;8.20;53.70;;;;;;5024397;28;20021;-79
2022/03/03 00:25:07;;;;;;;21.52;12.80;;;8.20;53.10;;;;;;5037897;28;20032;-79
2022/03/03 00:27:34;;;;;;;20.55;13.00;;;8.20;53.20;;;;;;5047625;28;20030;-78
2022/03/03 00:30:00;;;;;;;21.63;12.95;;;8.20;53.10;;;;;;5035473;28;20393;-79
2022/03/03 00:32:25;;;;;;;19.60;12.32;;;8.30;53.10;;;;;;5050811;28;20062;-78
2022/03/03 00:34:51;;;;;;;22.42;12.93;;;8.30;53.00;;;;;;5036604;28;20488;-78
2022/03/03 00:37:17;;;;;;;23.88;13.30;;;8.30;53.20;;;;;;5036073;28;20040;-78
2022/03/03 00:39:43;;;;;;;20.38;12.77;;;8.30;53.40;;;;;;5053385;28;20388;-78
2022/03/03 00:42:09;;;;;;;22.70;13.35;;;8.30;53.00;;;;;;5046624;28;20033;-79
2022/03/03 00:44:34;;;;;;;21.63;12.85;;;8.30;53.20;;;;;;5036444;28;20028;-78
2022/03/03 00:47:00;;;;;;;21.17;12.90;;;8.30;53.50;;;;;;5052159;28;20064;-78
2022/03/03 00:49:25;;;;;;;24.52;13.35;;;8.30;53.50;;;;;;5044909;28;20037;-78
2022/03/03 00:51:51;;;;;;;21.98;13.15;;;8.30;53.20;;;;;;5049298;28;20090;-79
2022/03/03 00:54:16;;;;;;;24.60;14.15;;;8.40;53.00;;;;;;5045211;28;20081;-79
2022/03/03 00:56:42;;;;;;;21.05;13.60;;;8.30;53.10;;;;;;5034997;28;20029;-79
2022/03/03 00:59:10;;;;;;;20.75;13.40;;;8.10;53.60;;;;;;5044287;28;20029;-79
2022/03/03 01:01:35;;;;;;;20.73;12.80;;;8.00;53.90;;;;;;5044171;28;20052;-79
2022/03/03 01:04:01;;;;;;;23.08;14.07;;;7.90;54.00;;;;;;5038194;28;20041;-79
2022/03/03 01:06:27;;;;;;;24.42;13.55;;;7.80;54.50;;;;;;5031320;28;20021;-79
2022/03/03 01:08:52;;;;;;;25.00;12.93;;;7.60;54.60;;;;;;5031708;28;20028;-79
2022/03/03 01:11:18;;;;;;;18.05;12.38;;;7.50;54.90;;;;;;5032528;28;20025;-79
2022/03/03 01:13:43;;;;;;;19.35;12.45;;;7.60;55.20;;;;;;5032771;28;20021;-80
2022/03/03 01:16:09;;;;;;;21.25;14.00;;;7.60;55.00;;;;;;5033931;28;20542;-79
2022/03/03 01:18:34;;;;;;;25.35;12.80;;;7.60;54.80;;;;;;5034277;28;20412;-79
2022/03/03 01:21:00;;;;;;;19.38;13.20;;;7.60;55.30;;;;;;5034173;28;20484;-79
2022/03/03 01:23:26;;;;;;;20.83;13.27;;;7.70;54.80;;;;;;5034049;28;20021;-80
2022/03/03 01:25:51;;;;;;;21.40;13.57;;;7.80;54.50;;;;;;5034116;28;20376;-79
2022/03/03 01:28:17;;;;;;;19.42;12.65;;;7.80;54.70;;;;;;5034200;28;20037;-79
2022/03/03 01:30:42;;;;;;;22.75;13.80;;;7.90;54.40;;;;;;5033882;28;20033;-80
2022/03/03 01:33:08;;;;;;;22.50;13.10;;;7.80;54.20;;;;;;5033986;28;20354;-79
2022/03/03 01:35:34;;;;;;;21.30;13.40;;;7.80;54.60;;;;;;5032468;28;20029;-79
2022/03/03 01:38:00;;;;;;;21.80;13.43;;;7.80;54.40;;;;;;5032341;28;20469;-79
2022/03/03 01:40:26;;;;;;;19.80;12.82;;;7.80;54.50;;;;;;5031036;28;20033;-78
2022/03/03 01:42:52;;;;;;;19.10;12.98;;;7.80;54.90;;;;;;5031223;28;20045;-80
2022/03/03 01:45:18;;;;;;;16.98;11.80;;;7.80;54.60;;;;;;5032187;28;20097;-80
2022/03/03 01:47:44;;;;;;;22.23;13.18;;;7.80;54.30;;;;;;5033835;28;20108;-80
2022/03/03 01:50:10;;;;;;;21.80;13.00;;;7.90;54.50;;;;;;5033132;28;20115;-79
2022/03/03 01:52:35;;;;;;;23.50;13.35;;;7.80;54.20;;;;;;5033842;28;20507;-80
2022/03/03 01:55:01;;;;;;;19.02;12.07;;;7.70;54.40;;;;;;5033291;28;20542;-80
2022/03/03 01:57:28;;;;;;;21.05;12.88;;;7.80;54.70;;;;;;5033077;28;20534;-79
2022/03/03 01:59:54;;;;;;;21.25;13.85;;;7.80;55.00;;;;;;5033195;28;20384;-79
2022/03/03 02:02:20;;;;;;;19.92;13.85;;;7.80;54.60;;;;;;5033157;28;20105;-79
2022/03/03 02:04:47;;;;;;;19.80;13.38;;;7.90;54.40;;;;;;5042276;28;20084;-79
2022/03/03 02:07:12;;;;;;;23.23;12.77;;;7.80;54.50;;;;;;5048029;28;20072;-79
2022/03/03 02:09:40;;;;;;;21.65;12.40;;;7.80;54.50;;;;;;5040071;28;20037;-79
2022/03/03 02:12:06;;;;;;;21.33;12.73;;;7.80;54.40;;;;;;5044018;28;20030;-77
2022/03/03 02:14:48;;;;;;;19.25;12.80;;;7.70;54.30;;;;;;5044388;28;20288;-78
2022/03/03 02:17:16;;;;;;;20.92;12.75;;;7.70;54.60;;;;;;5039718;28;20030;-78
2022/03/03 02:19:42;;;;;;;20.33;12.93;;;7.60;54.80;;;;;;5039228;28;20025;-78
2022/03/03 02:22:08;;;;;;;20.23;13.05;;;7.50;54.80;;;;;;5033391;28;20040;-78
2022/03/03 02:24:35;;;;;;;21.23;13.55;;;7.50;55.10;;;;;;5039743;28;20021;-78
2022/03/03 02:27:01;;;;;;;22.13;13.88;;;7.50;55.20;;;;;;5040100;28;20417;-79
2022/03/03 02:29:28;;;;;;;21.70;13.63;;;7.40;55.10;;;;;;5040152;28;20087;-78
2022/03/03 02:31:54;;;;;;;23.45;13.07;;;7.20;56.00;;;;;;5033076;28;20033;-78
2022/03/03 02:34:20;;;;;;;20.02;13.18;;;7.10;56.30;;;;;;5032864;28;20059;-77
2022/03/03 02:36:45;;;;;;;22.90;13.68;;;7.10;56.40;;;;;;5033087;28;20025;-78
2022/03/03 02:39:11;;;;;;;24.13;13.35;;;7.00;56.10;;;;;;5032070;22;20056;-78
2022/03/03 02:41:37;;;;;;;20.30;13.30;;;7.10;56.20;;;;;;5012863;28;20138;-78
2022/03/03 02:44:04;;;;;;;22.33;13.80;;;7.10;56.10;;;;;;5012388;28;20508;-79
2022/03/03 02:46:30;;;;;;;21.63;13.30;;;7.10;56.90;;;;;;5013103;28;20042;-81
2022/03/03 02:48:56;;;;;;;19.00;13.15;;;7.20;56.20;;;;;;5012981;28;20026;-81
2022/03/03 02:51:22;;;;;;;23.08;13.63;;;7.20;56.20;;;;;;5013153;28;20026;-78
2022/03/03 02:53:47;;;;;;;20.15;13.00;;;7.10;56.00;;;;;;5015896;28;20088;-78
2022/03/03 02:56:14;;;;;;;20.13;12.60;;;7.20;56.10;;;;;;5016745;28;20038;-78
2022/03/03 02:58:39;;;;;;;22.30;13.20;;;7.10;56.60;;;;;;5016760;28;20021;-78
2022/03/03 03:01:06;;;;;;;24.50;14.35;;;7.00;56.60;;;;;;5016608;28;20033;-78
2022/03/03 03:03:32;;;;;;;22.88;13.50;;;6.90;57.00;;;;;;5016591;28;20030;-79
2022/03/03 03:05:58;;;;;;;23.38;13.10;;;6.80;57.00;;;;;;5017142;28;20033;-79
2022/03/03 03:08:24;;;;;;;20.70;13.50;;;6.90;57.50;;;;;;5016169;28;20030;-79
2022/03/03 03:10:49;;;;;;;26.17;14.25;;;6.90;57.50;;;;;;5016587;28;20021;-79
2022/03/03 03:13:15;;;;;;;22.77;13.40;;;6.90;57.10;;;;;;5016159;28;20108;-78
2022/03/03 03:15:45;;;;;;;21.65;13.10;;;6.90;57.30;;;;;;5016943;28;20040;-78
2022/03/03 03:18:21;;;;;;;19.52;13.18;;;6.80;57.10;;;;;;5016701;28;20490;-78
2022/03/03 03:20:49;;;;;;;25.90;14.60;;;6.80;57.40;;;;;;5003476;28;20069;-78
2022/03/03 03:23:17;;;;;;;23.15;13.15;;;6.80;57.40;;;;;;5016791;28;20351;-77
2022/03/03 03:25:43;;;;;;;21.15;12.85;;;6.70;57.80;;;;;;5002849;28;20026;-77
2022/03/03 03:28:14;;;;;;;21.25;13.48;;;6.80;57.40;;;;;;5016161;28;20029;-78
2022/03/03 03:30:43;;;;;;;21.88;13.65;;;6.70;57.80;;;;;;5015668;28;20048;-78
2022/03/03 03:33:09;;;;;;;20.60;12.38;;;6.70;57.70;;;;;;5016396;28;20032;-78
2022/03/03 03:35:37;;;;;;;20.23;13.38;;;6.70;57.70;;;;;;5016140;28;20380;-78
2022/03/03 03:38:04;;;;;;;25.27;14.70;;;6.70;58.00;;;;;;5016586;28;20030;-79
2022/03/03 03:40:30;;;;;;;20.73;12.75;;;6.80;57.70;;;;;;5015407;28;20054;-77
2022/03/03 03:42:56;;;;;;;23.30;13.77;;;6.70;58.00;;;;;;5016355;28;20113;-78
2022/03/03 03:45:21;;;;;;;23.52;13.45;;;6.70;57.80;;;;;;5015868;28;20058;-78
2022/03/03 03:47:47;;;;;;;20.60;13.40;;;6.70;57.60;;;;;;5016113;28;20076;-78
2022/03/03 03:50:13;;;;;;;24.77;13.38;;;6.70;57.80;;;;;;5015694;28;20489;-78
2022/03/03 03:52:40;;;;;;;22.77;13.63;;;6.60;57.60;;;;;;5015704;28;20025;-78
2022/03/03 03:55:11;;;;;;;25.13;14.40;;;6.60;57.90;;;;;;5015592;28;20404;-78
2022/03/03 03:57:38;;;;;;;19.60;13.23;;;6.50;58.10;;;;;;5016009;28;20366;-79
2022/03/03 04:00:06;;;;;;;22.98;13.82;;;6.50;58.20;;;;;;5015591;28;20029;-78
2022/03/03 04:02:33;;;;;;;22.35;14.10;;;6.50;58.30;;;;;;5014815;28;20038;-78
2022/03/03 04:04:59;;;;;;;19.83;13.38;;;6.40;58.40;;;;;;5015558;28;20485;-78
2022/03/03 04:07:24;;;;;;;26.95;14.30;;;6.30;58.50;;;;;;5015673;28;20034;-78
2022/03/03 04:09:50;;;;;;;22.58;14.13;;;6.40;58.50;;;;;;5015785;28;20029;-78
2022/03/03 04:12:15;;;;;;;23.05;13.93;;;6.40;58.60;;;;;;5015079;28;20485;-78
2022/03/03 04:14:41;;;;;;;19.83;13.38;;;6.40;58.50;;;;;;5015170;28;20116;-79
2022/03/03 04:17:07;;;;;;;20.80;13.18;;;6.40;58.30;;;;;;5015633;28;20038;-79
2022/03/03 04:19:32;;;;;;;20.55;13.68;;;6.40;58.60;;;;;;5015145;28;20028;-79
2022/03/03 04:21:58;;;;;;;23.42;14.30;;;6.40;58.60;;;;;;5015306;28;20041;-79
2022/03/03 04:24:24;;;;;;;23.77;14.43;;;6.30;58.60;;;;;;5015033;28;20112;-79
2022/03/03 04:26:49;;;;;;;25.05;14.65;;;6.30;58.90;;;;;;5015657;28;20039;-79
2022/03/03 04:29:15;;;;;;;19.95;13.32;;;6.30;58.90;;;;;;5015201;28;20469;-79
2022/03/03 04:31:40;;;;;;;22.48;13.88;;;6.20;59.10;;;;;;5015386;28;20021;-79
2022/03/03 04:34:06;;;;;;;19.75;13.20;;;6.20;59.20;;;;;;5015534;28;20026;-79
2022/03/03 04:36:34;;;;;;;27.40;14.40;;;6.20;58.90;;;;;;5014700;28;20061;-79
2022/03/03 04:39:00;;;;;;;25.77;13.38;;;6.20;59.20;;;;;;5014600;28;20042;-79
2022/03/03 04:41:25;;;;;;;21.52;13.43;;;6.10;59.30;;;;;;5019779;28;20045;-79
2022/03/03 04:43:51;;;;;;;21.13;13.05;;;6.10;59.20;;;;;;5024557;28;20021;-79
2022/03/03 04:46:16;;;;;;;22.48;14.00;;;6.10;59.80;;;;;;5033459;28;20038;-79
2022/03/03 04:48:42;;;;;;;24.02;13.52;;;6.00;59.70;;;;;;5033292;28;20026;-79
2022/03/03 04:51:08;;;;;;;22.55;13.73;;;6.00;59.70;;;;;;5029471;28;20026;-80
2022/03/03 04:53:34;;;;;;;23.15;13.88;;;6.00;59.70;;;;;;5016596;28;20083;-79
2022/03/03 04:56:00;;;;;;;21.90;12.77;;;6.00;59.70;;;;;;5031813;28;20108;-79
2022/03/03 04:58:26;;;;;;;21.85;13.40;;;5.90;59.70;;;;;;5033430;28;20025;-79
2022/03/03 05:00:51;;;;;;;24.25;14.23;;;5.90;59.90;;;;;;5030709;28;20133;-79
2022/03/03 05:03:17;;;;;;;23.20;13.70;;;5.90;60.20;;;;;;5015722;28;20030;-80
2022/03/03 05:05:43;;;;;;;18.23;12.73;;;5.90;60.00;;;;;;5016438;28;20075;-80
2022/03/03 05:08:09;;;;;;;20.67;13.43;;;6.00;60.20;;;;;;5015009;28;20469;-78
2022/03/03 05:10:35;;;;;;;23.02;13.48;;;6.00;59.90;;;;;;5016873;28;20029;-79
2022/03/03 05:13:01;;;;;;;23.60;13.48;;;6.10;59.90;;;;;;5031294;28;20086;-78
2022/03/03 05:15:27;;;;;;;23.38;13.80;;;6.10;59.80;;;;;;5016644;28;20116;-78
2022/03/03 05:17:53;;;;;;;23.15;14.48;;;6.20;59.80;;;;;;5031649;28;20037;-78
2022/03/03 05:20:18;;;;;;;21.63;13.32;;;6.20;59.40;;;;;;5030909;28;20123;-79
2022/03/03 05:22:44;;;;;;;22.40;13.20;;;6.30;59.40;;;;;;5018341;28;20084;-78
2022/03/03 05:25:10;;;;;;;23.25;12.77;;;6.30;59.30;;;;;;5015731;28;20045;-79
2022/03/03 05:27:37;;;;;;;21.50;13.18;;;6.40;59.30;;;;;;5030657;28;20029;-78
2022/03/03 05:30:09;;;;;;;21.92;13.40;;;6.40;59.00;;;;;;5032712;28;20361;-79
2022/03/03 05:32:36;;;;;;;22.97;13.23;;;6.40;59.10;;;;;;5031608;28;20080;-79
2022/03/03 05:35:03;;;;;;;20.35;12.05;;;6.40;59.00;;;;;;5023490;28;20030;-78
2022/03/03 05:37:29;;;;;;;20.63;12.65;;;6.40;58.90;;;;;;5025053;28;20022;-79
2022/03/03 05:39:54;;;;;;;22.25;13.63;;;6.40;59.10;;;;;;5019272;28;20046;-79
2022/03/03 05:42:24;;;;;;;21.58;13.32;;;6.30;59.10;;;;;;5013443;28;20130;-82
2022/03/03 05:44:51;;;;;;;24.67;13.57;;;6.30;59.40;;;;;;5013664;28;20053;-81
2022/03/03 05:47:17;;;;;;;21.77;13.35;;;6.30;59.20;;;;;;5013735;28;20029;-81
2022/03/03 05:49:50;;;;;;;19.77;13.05;;;6.40;59.40;;;;;;5013825;28;20037;-80
2022/03/03 05:52:16;;;;;;;21.60;12.90;;;6.40;59.10;;;;;;5013502;28;20405;-80
2022/03/03 05:54:42;;;;;;;23.13;13.02;;;6.50;59.00;;;;;;5014115;28;20029;-80
2022/03/03 05:57:17;;;;;;;25.48;14.52;;;6.50;58.90;;;;;;5013555;28;20034;-81
2022/03/03 05:59:47;;;;;;;20.45;13.60;;;6.50;58.60;;;;;;5013842;28;20026;-80
2022/03/03 06:02:13;;;;;;;21.65;14.13;;;6.50;58.70;;;;;;5012945;28;20038;-80
2022/03/03 06:04:39;;;;;;;25.17;13.85;;;6.50;58.70;;;;;;5012590;28;20473;-79
2022/03/03 06:07:21;;;;;;;23.38;14.23;;;6.40;58.50;;;;;;5012636;28;20036;-79
2022/03/03 06:09:52;;;;;;;27.55;14.07;;;6.40;58.40;;;;;;5013136;28;20488;-79
2022/03/03 06:12:22;;;;;;;21.83;13.38;;;6.30;58.40;;;;;;5012735;28;20148;-78
2022/03/03 06:15:03;;;;;;;24.42;13.85;;;6.30;58.70;;;;;;5013502;28;20109;-78
2022/03/03 06:17:30;;;;;;;21.67;13.20;;;6.30;58.70;;;;;;5012825;28;20161;-78
2022/03/03 06:20:00;;;;;;;22.58;13.55;;;6.30;58.70;;;;;;5013353;28;20033;-78
2022/03/03 06:22:26;;;;;;;21.48;13.65;;;6.30;58.60;;;;;;5012269;28;20034;-78
2022/03/03 06:24:53;;;;;;;22.83;13.35;;;6.20;58.70;;;;;;5013214;28;20025;-78
2022/03/03 06:27:19;;;;;;;20.00;12.95;;;6.10;58.80;;;;;;5011788;28;20029;-78
2022/03/03 06:29:44;;;;;;;23.25;14.13;;;6.00;59.00;;;;;;5013205;28;20030;-79
2022/03/03 06:32:11;;;;;;;19.95;13.30;;;6.00;59.20;;;;;;5012514;28;20056;-78
2022/03/03 06:34:37;;;;;;;21.80;13.98;;;5.90;59.30;;;;;;5012732;28;20064;-79
2022/03/03 06:37:03;;;;;;;21.17;13.40;;;5.90;59.20;;;;;;5013041;28;20038;-79
2022/03/03 06:39:29;;;;;;;21.15;13.48;;;5.90;59.40;;;;;;5021133;28;20050;-82
2022/03/03 06:41:54;;;;;;;22.77;13.45;;;5.90;59.40;;;;;;5016681;28;20041;-84
2022/03/03 06:44:20;;;;;;;20.45;13.48;;;5.90;59.20;;;;;;5015867;28;20540;-84
2022/03/03 06:46:47;;;;;;;25.42;14.25;;;5.90;59.20;;;;;;5014263;28;20037;-83
2022/03/03 06:49:13;;;;;;;21.60;13.35;;;5.90;59.20;;;;;;5015085;28;20033;-83
2022/03/03 06:51:43;;;;;;;23.17;13.25;;;5.90;59.30;;;;;;5012543;28;20061;-84
2022/03/03 06:54:14;;;;;;;23.85;14.30;;;5.90;59.20;;;;;;5014336;28;20032;-82
2022/03/03 06:56:50;;;;;;;22.70;13.23;;;5.90;59.00;;;;;;5017225;28;20042;-82
2022/03/03 06:59:18;;;;;;;24.77;13.65;;;5.90;59.00;;;;;;5014337;28;20034;-83
2022/03/03 07:01:46;;;;;;;21.02;13.50;;;6.00;59.00;;;;;;5014520;28;20089;-83
2022/03/03 07:04:13;;;;;;;23.98;13.15;;;6.00;58.90;;;;;;5018990;28;20046;-83
2022/03/03 07:06:40;;;;;;;25.27;14.15;;;6.00;58.90;;;;;;5012970;28;20045;-83
2022/03/03 07:09:06;;;;;;;24.42;14.25;;;6.00;58.90;;;;;;5013135;28;20030;-83
2022/03/03 07:11:32;;;;;;;26.38;14.73;;;6.00;59.00;;;;;;5013441;28;20072;-82
2022/03/03 07:14:00;;;;;;;20.95;13.88;;;5.90;59.20;;;;;;5022871;28;20022;-84
2022/03/03 07:16:50;;;;;;;22.85;13.68;;;5.80;59.60;;;;;;5028647;28;20108;-84
2022/03/03 07:19:32;;;;;;;24.63;14.77;;;5.80;59.80;;;;;;5022902;28;20036;-85
2022/03/03 07:22:20;;;;;;;21.42;13.00;;;5.70;60.00;;;;;;5029086;28;20065;-85
2022/03/03 07:24:52;;;;;;;25.02;14.23;;;5.50;60.40;;;;;;5018977;28;20045;-85
2022/03/03 07:27:21;;;;;;;24.20;13.23;;;5.60;60.60;;;;;;5022708;28;20091;-85
2022/03/03 07:29:56;;;;;;;24.65;13.43;;;5.60;60.60;;;;;;5021215;28;20045;-85
2022/03/03 07:32:46;;;;;;;38.88;15.57;;;5.60;60.60;;;;;;5016930;28;20109;-85
2022/03/03 07:35:14;;;;;;;20.98;13.25;;;5.60;60.90;;;;;;5016183;28;20038;-84
2022/03/03 07:37:58;;;;;;;23.45;13.73;;;5.60;60.60;;;;;;5019891;28;20045;-85
2022/03/03 07:40:27;;;;;;;25.67;13.38;;;5.50;60.70;;;;;;5017051;28;20092;-80
2022/03/03 07:42:53;;;;;;;21.13;13.20;;;5.50;61.10;;;;;;5016145;28;20072;-82
2022/03/03 07:45:19;;;;;;;24.00;13.23;;;5.60;60.90;;;;;;5014646;28;20056;-83
2022/03/03 07:47:48;;;;;;;23.42;13.52;;;5.80;61.00;;;;;;5014753;28;20065;-85
2022/03/03 07:50:14;;;;;;;19.02;12.68;;;6.00;60.40;;;;;;5013886;28;20667;-83
2022/03/03 07:52:42;;;;;;;21.23;12.43;;;6.00;59.80;;;;;;5013418;28;20041;-82
2022/03/03 07:55:08;;;;;;;20.40;12.43;;;6.30;60.40;;;;;;5014804;28;20058;-80
2022/03/03 07:57:39;;;;;;;21.13;12.73;;;6.50;59.80;;;;;;5013730;28;20045;-81
2022/03/03 08:00:07;;;;;;;20.20;11.88;;;6.70;58.40;;;;;;5016097;28;20022;-83
2022/03/03 08:02:34;;;;;;;19.08;12.43;;;6.90;58.10;;;;;;5014255;28;20029;-81
2022/03/03 08:05:01;;;;;;;24.10;12.75;;;7.10;58.90;;;;;;5014408;28;20030;-82
2022/03/03 08:07:28;;;;;;;23.30;12.70;;;7.30;57.50;;;;;;5014819;28;20038;-81
2022/03/03 08:09:59;;;;;;;22.73;12.68;;;7.30;56.70;;;;;;5014745;28;20041;-81
2022/03/03 08:12:25;;;;;;;22.85;13.10;;;7.40;57.10;;;;;;5014824;28;20469;-81
2022/03/03 08:14:52;;;;;;;18.48;12.52;;;7.50;56.80;;;;;;5013487;28;20026;-80
2022/03/03 08:17:18;;;;;;;18.10;11.80;;;7.40;56.70;;;;;;5021107;28;20038;-80
2022/03/03 08:19:45;;;;;;;20.50;12.38;;;7.50;56.80;;;;;;5019765;28;20156;-82
2022/03/03 08:22:13;;;;;;;22.85;13.00;;;7.60;56.70;;;;;;5014482;28;20509;-82
2022/03/03 08:24:43;;;;;;;24.75;12.15;;;7.80;56.30;;;;;;5015142;28;20030;-81
2022/03/03 08:27:11;;;;;;;22.23;12.65;;;8.00;56.30;;;;;;5015172;28;20044;-80
2022/03/03 08:29:38;;;;;;;26.17;13.98;;;8.20;55.70;;;;;;5015151;28;20347;-81
2022/03/03 08:32:11;;;;;;;20.90;14.00;;;8.30;55.10;;;;;;5015082;28;20025;-82
2022/03/03 08:34:47;;;;;;;21.50;14.15;;;8.30;55.80;;;;;;5016002;28;20064;-82
2022/03/03 08:37:28;;;;;;;20.73;13.30;;;8.40;54.90;;;;;;5015728;28;20439;-85
2022/03/03 08:39:58;;;;;;;24.33;13.68;;;8.40;55.20;;;;;;5014336;28;20054;-81
2022/03/03 08:42:27;;;;;;;22.40;13.85;;;8.30;55.20;;;;;;5014508;28;20034;-81
2022/03/03 08:44:57;;;;;;;25.25;14.15;;;8.30;55.90;;;;;;5012698;28;20092;-81
2022/03/03 08:47:25;;;;;;;20.98;12.20;;;8.40;55.80;;;;;;5013550;28;20053;-81
2022/03/03 08:50:01;;;;;;;23.80;13.57;;;8.60;56.00;;;;;;5014010;28;20030;-82
2022/03/03 08:52:28;;;;;;;20.75;12.85;;;8.80;55.00;;;;;;5013617;28;20034;-80
2022/03/03 08:54:54;;;;;;;21.67;12.77;;;8.80;54.60;;;;;;5015096;28;20081;-81
2022/03/03 08:57:20;;;;;;;20.67;13.43;;;8.90;53.90;;;;;;5014783;28;20545;-81
2022/03/03 08:59:45;;;;;;;19.13;12.68;;;8.90;54.20;;;;;;5015056;28;20034;-81
2022/03/03 09:02:20;;;;;;;19.40;13.38;;;8.90;54.30;;;;;;5014514;28;20423;-80
2022/03/03 09:04:46;;;;;;;24.13;13.77;;;8.90;54.60;;;;;;5014796;28;20040;-81
2022/03/03 09:07:13;;;;;;;23.27;13.27;;;9.00;54.60;;;;;;5014465;28;20477;-80
2022/03/03 09:09:39;;;;;;;24.77;13.77;;;9.20;54.70;;;;;;5014719;28;20037;-79
2022/03/03 09:12:05;;;;;;;17.88;12.45;;;9.30;53.30;;;;;;5014132;28;20030;-79
2022/03/03 09:14:31;;;;;;;20.80;13.43;;;9.40;52.90;;;;;;5014962;28;20092;-82
2022/03/03 09:16:57;;;;;;;19.90;13.32;;;9.50;53.50;;;;;;5015206;28;20240;-82
2022/03/03 09:19:22;;;;;;;19.90;13.82;;;9.60;53.20;;;;;;5014673;28;20389;-82
2022/03/03 09:21:48;;;;;;;20.52;13.07;;;9.70;53.00;;;;;;5013323;28;20480;-81
2022/03/03 09:24:14;;;;;;;25.17;13.70;;;9.80;53.10;;;;;;5012594;28;20053;-81
2022/03/03 09:26:39;;;;;;;22.08;14.25;;;10.00;52.40;;;;;;5012822;28;20022;-82
2022/03/03 09:29:05;;;;;;;16.73;12.68;;;10.20;52.60;;;;;;5014248;28;20496;-80
2022/03/03 09:31:31;;;;;;;23.90;13.07;;;10.30;52.10;;;;;;5014301;28;20030;-80
2022/03/03 09:33:57;;;;;;;20.40;13.50;;;10.40;50.70;;;;;;5013909;28;20478;-85
2022/03/03 09:36:22;;;;;;;20.63;13.55;;;10.60;51.00;;;;;;5013258;28;20030;-82
2022/03/03 09:38:48;;;;;;;21.10;13.18;;;10.50;50.70;;;;;;5016579;28;20038;-81
2022/03/03 09:41:14;;;;;;;18.63;12.77;;;10.40;51.30;;;;;;5031921;28;20029;-77
2022/03/03 09:43:41;;;;;;;23.42;13.25;;;10.50;51.20;;;;;;5033061;28;20041;-82
2022/03/03 09:46:07;;;;;;;23.65;13.63;;;10.50;50.60;;;;;;5031191;28;20025;-84
2022/03/03 09:48:33;;;;;;;18.67;12.18;;;10.60;50.90;;;;;;5032455;28;20452;-83
2022/03/03 09:51:00;;;;;;;24.33;13.32;;;10.80;50.70;;;;;;5032644;28;20112;-84
2022/03/03 09:53:25;;;;;;;22.65;13.15;;;10.80;50.80;;;;;;5033202;28;20032;-84
2022/03/03 09:55:51;;;;;;;20.88;12.70;;;10.80;50.40;;;;;;5033247;28;20022;-84
2022/03/03 09:58:17;;;;;;;27.13;14.18;;;10.90;49.90;;;;;;5028642;28;20125;-84
2022/03/03 10:00:43;;;;;;;24.58;13.43;;;11.00;49.70;;;;;;5027041;28;20088;-84
2022/03/03 10:03:14;;;;;;;30.10;14.00;;;11.10;49.50;;;;;;5019270;28;20045;-84
2022/03/03 10:05:47;;;;;;;20.65;12.48;;;11.30;49.40;;;;;;5032985;28;20086;-84
2022/03/03 10:08:18;;;;;;;16.63;12.27;;;11.40;49.60;;;;;;5033847;28;20030;-84
2022/03/03 10:10:50;;;;;;;19.58;12.60;;;11.50;49.20;;;;;;5033911;28;20029;-84
2022/03/03 10:13:17;;;;;;;18.67;11.60;;;11.60;48.40;;;;;;5033588;28;20033;-84
2022/03/03 10:15:52;;;;;;;16.73;11.30;;;11.50;47.80;;;;;;5033434;28;20033;-84
2022/03/03 10:18:19;;;;;;;16.33;12.07;;;11.60;48.90;;;;;;5027464;28;20029;-84
2022/03/03 10:20:55;;;;;;;18.80;12.25;;;11.80;47.90;;;;;;5032049;28;20460;-84
2022/03/03 10:23:34;;;;;;;17.00;12.50;;;11.90;48.00;;;;;;5031313;28;20071;-84
2022/03/03 10:26:02;;;;;;;20.92;13.10;;;12.10;47.60;;;;;;5031969;28;20032;-84
2022/03/03 10:28:30;;;;;;;21.00;12.27;;;12.10;47.60;;;;;;5031447;28;20026;-84
2022/03/03 10:31:05;;;;;;;20.73;12.98;;;12.20;47.70;;;;;;5029566;28;20029;-84
2022/03/03 10:33:44;;;;;;;16.95;11.55;;;12.30;47.80;;;;;;5031502;28;20100;-84
2022/03/03 10:36:16;;;;;;;18.25;11.50;;;12.30;47.60;;;;;;5031769;28;20143;-84
2022/03/03 10:38:58;;;;;;;19.83;11.38;;;12.40;46.90;;;;;;5026783;28;20100;-83
2022/03/03 10:41:33;;;;;;;14.52;11.10;;;12.40;47.10;;;;;;5018969;28;20488;-84
2022/03/03 10:44:02;;;;;;;15.15;11.32;;;12.50;47.00;;;;;;5017143;28;20121;-84
2022/03/03 10:46:29;;;;;;;16.00;11.20;;;12.60;47.80;;;;;;5014798;28;20021;-82
2022/03/03 10:48:55;;;;;;;16.77;11.63;;;12.70;47.70;;;;;;5017130;28;20105;-83
2022/03/03 10:51:24;;;;;;;19.17;12.45;;;12.80;47.90;;;;;;5021557;28;20198;-83
2022/03/03 10:53:56;;;;;;;19.23;13.50;;;12.90;47.70;;;;;;5028789;28;20101;-84
2022/03/03 10:56:22;;;;;;;19.67;13.02;;;12.90;47.10;;;;;;5024863;28;20057;-83
2022/03/03 10:58:52;;;;;;;16.05;11.80;;;12.90;48.00;;;;;;5015218;28;20473;-84
2022/03/03 11:01:29;;;;;;;19.55;11.48;;;13.00;47.40;;;;;;5014545;28;20096;-85
2022/03/03 11:03:55;;;;;;;15.30;11.52;;;13.00;47.70;;;;;;5015417;28;20484;-84
2022/03/03 11:06:23;;;;;;;16.45;11.70;;;13.10;48.30;;;;;;5025658;28;20030;-83
2022/03/03 11:08:51;;;;;;;20.73;12.60;;;13.20;48.50;;;;;;5013557;28;20492;-83
2022/03/03 11:11:17;;;;;;;16.42;11.60;;;13.30;47.60;;;;;;5023006;28;20034;-83
2022/03/03 11:13:45;;;;;;;21.42;11.20;;;13.30;46.70;;;;;;5026868;28;20041;-84
2022/03/03 11:16:11;;;;;;;15.85;11.60;;;13.40;47.30;;;;;;5032528;28;20488;-84
2022/03/03 11:18:37;;;;;;;17.52;11.07;;;13.50;46.20;;;;;;5015677;28;20033;-83
2022/03/03 11:21:03;;;;;;;16.98;10.65;;;13.50;46.80;;;;;;5005963;28;20053;-84
2022/03/03 11:23:43;;;;;;;18.58;11.82;;;13.50;46.20;;;;;;5017233;28;20026;-85
2022/03/03 11:26:19;;;;;;;18.90;10.95;;;13.60;46.20;;;;;;5017148;28;20373;-84
2022/03/03 11:29:15;;;;;;;15.10;10.07;;;13.80;46.10;;;;;;5016762;28;20595;-84
2022/03/03 11:31:58;;;;;;;14.95;10.05;;;13.70;44.70;;;;;;5016100;28;20034;-85
2022/03/03 11:34:43;;;;;;;13.30;10.18;;;13.70;44.60;;;;;;5025487;28;20105;-83
2022/03/03 11:37:24;;;;;;;14.23;10.02;;;13.80;45.80;;;;;;5021700;28;20088;-85
2022/03/03 11:40:01;;;;;;;11.77;9.23;;;13.90;45.50;;;;;;5014252;28;20501;-84
2022/03/03 11:42:49;;;;;;;15.23;9.70;;;14.10;43.80;;;;;;5014878;28;20528;-83
2022/03/03 11:45:17;;;;;;;13.68;9.43;;;14.20;43.20;;;;;;5012741;28;20030;-80
2022/03/03 11:47:45;;;;;;;14.63;9.65;;;14.20;42.80;;;;;;5015926;28;20425;-82
2022/03/03 11:50:16;;;;;;;14.95;10.18;;;14.20;43.80;;;;;;5015168;28;20040;-85
2022/03/03 11:53:02;;;;;;;11.75;9.32;;;14.20;42.40;;;;;;5012478;28;20113;-83
2022/03/03 11:55:32;;;;;;;12.23;9.32;;;14.10;42.90;;;;;;5015470;28;20044;-81
2022/03/03 11:58:05;;;;;;;14.70;9.63;;;14.00;43.10;;;;;;5014748;28;20108;-82
2022/03/03 12:00:33;;;;;;;12.98;9.27;;;13.90;44.20;;;;;;5015143;28;20030;-81
2022/03/03 12:03:04;;;;;;;11.25;9.50;;;14.10;46.40;;;;;;5015005;28;20481;-81
2022/03/03 12:05:35;;;;;;;15.73;9.52;;;14.30;45.00;;;;;;5014282;28;20058;-81
2022/03/03 12:08:04;;;;;;;12.20;9.05;;;14.40;42.80;;;;;;5014620;28;20057;-82
2022/03/03 12:10:31;;;;;;;14.25;9.65;;;14.40;42.60;;;;;;5013674;28;20036;-81
2022/03/03 12:13:23;;;;;;;11.95;8.95;;;14.40;42.50;;;;;;5014964;28;20025;-84
2022/03/03 12:16:10;;;;;;;12.95;9.98;;;14.50;43.50;;;;;;5015249;28;20096;-80
2022/03/03 12:18:37;;;;;;;13.35;9.98;;;14.60;42.80;;;;;;5015034;28;20369;-81
2022/03/03 12:21:23;;;;;;;12.48;9.35;;;14.70;43.40;;;;;;5014827;28;20113;-81
2022/03/03 12:23:49;;;;;;;12.48;10.48;;;14.60;43.50;;;;;;5013581;28;20054;-83
2022/03/03 12:26:14;;;;;;;12.40;9.05;;;14.70;44.00;;;;;;5013543;28;20049;-83
2022/03/03 12:28:46;;;;;;;16.05;10.70;;;14.60;44.20;;;;;;5011968;28;20064;-80
2022/03/03 12:31:30;;;;;;;12.43;9.07;;;14.70;44.40;;;;;;5012200;28;20026;-81
2022/03/03 12:34:01;;;;;;;13.85;10.18;;;14.80;43.70;;;;;;5011877;28;20026;-79
2022/03/03 12:36:29;;;;;;;16.25;9.48;;;14.90;43.30;;;;;;4998539;28;20034;-81
2022/03/03 12:38:55;;;;;;;12.40;9.50;;;14.90;43.00;;;;;;5010499;28;20500;-81
2022/03/03 12:41:26;;;;;;;13.38;9.25;;;15.00;41.90;;;;;;5029610;28;20096;-81